sensor_id;sensor_type;location;lat;lon;timestamp;P1;durP1;ratioP1;P2;durP2;ratioP2
28170;SDS011;15458;53.346;-1.688;2023-11-21T00:00:16;2.30;;;0.82;;
28170;SDS011;15458;53.346;-1.688;2023-11-21T00:02:42;1.23;;;0.80;;
28170;SDS011;15458;53.346;-1.688;2023-11-21T00:05:09;1.35;;;0.70;;
28170;SDS011;15458;53.346;-1.688;2023-11-21T00:07:37;1.70;;;0.70;;
28170;SDS011;15458;53.346;-1.688;2023-11-21T00:10:03;1.05;;;0.50;;
28170;SDS011;15458;53.346;-1.688;2023-11-21T00:12:33;0.80;;;0.60;;
28170;SDS011;15458;53.346;-1.688;2023-11-21T00:15:01;2.35;;;0.60;;
28170;SDS011;15458;53.346;-1.688;2023-11-21T00:17:30;0.50;;;0.50;;
28170;SDS011;15458;53.346;-1.688;2023-11-21T00:19:56;6.43;;;0.98;;
28170;SDS011;15458;53.346;-1.688;2023-11-21T00:22:21;0.85;;;0.50;;
28170;SDS011;15458;53.346;-1.688;2023-11-21T00:24:47;0.63;;;0.52;;
28170;SDS011;15458;53.346;-1.688;2023-11-21T00:27:13;1.75;;;0.70;;
28170;SDS011;15458;53.346;-1.688;2023-11-21T00:29:39;1.13;;;0.65;;
28170;SDS011;15458;53.346;-1.688;2023-11-21T00:32:05;1.05;;;0.52;;
28170;SDS011;15458;53.346;-1.688;2023-11-21T00:34:31;2.58;;;0.50;;
28170;SDS011;15458;53.346;-1.688;2023-11-21T00:36:58;1.65;;;0.63;;
28170;SDS011;15458;53.346;-1.688;2023-11-21T00:39:24;2.60;;;0.73;;
28170;SDS011;15458;53.346;-1.688;2023-11-21T00:41:51;2.05;;;0.40;;
28170;SDS011;15458;53.346;-1.688;2023-11-21T00:44:17;1.70;;;0.38;;
28170;SDS011;15458;53.346;-1.688;2023-11-21T00:46:42;0.77;;;0.30;;
28170;SDS011;15458;53.346;-1.688;2023-11-21T00:49:08;0.73;;;0.45;;
28170;SDS011;15458;53.346;-1.688;2023-11-21T00:51:34;2.88;;;0.60;;
28170;SDS011;15458;53.346;-1.688;2023-11-21T00:53:59;3.40;;;0.60;;
28170;SDS011;15458;53.346;-1.688;2023-11-21T00:56:26;3.17;;;0.65;;
28170;SDS011;15458;53.346;-1.688;2023-11-21T00:58:52;1.73;;;0.80;;
28170;SDS011;15458;53.346;-1.688;2023-11-21T01:01:18;1.40;;;0.45;;
28170;SDS011;15458;53.346;-1.688;2023-11-21T01:03:48;1.52;;;0.57;;
28170;SDS011;15458;53.346;-1.688;2023-11-21T01:06:14;0.95;;;0.50;;
28170;SDS011;15458;53.346;-1.688;2023-11-21T01:08:40;2.47;;;0.43;;
28170;SDS011;15458;53.346;-1.688;2023-11-21T01:11:06;0.47;;;0.30;;
28170;SDS011;15458;53.346;-1.688;2023-11-21T01:13:33;2.28;;;0.60;;
28170;SDS011;15458;53.346;-1.688;2023-11-21T01:16:00;3.05;;;0.50;;
28170;SDS011;15458;53.346;-1.688;2023-11-21T01:18:26;1.52;;;0.30;;
28170;SDS011;15458;53.346;-1.688;2023-11-21T01:20:51;2.90;;;0.50;;
28170;SDS011;15458;53.346;-1.688;2023-11-21T01:23:18;3.55;;;0.43;;
28170;SDS011;15458;53.346;-1.688;2023-11-21T01:25:44;4.03;;;2.00;;
28170;SDS011;15458;53.346;-1.688;2023-11-21T01:28:10;0.88;;;0.47;;
28170;SDS011;15458;53.346;-1.688;2023-11-21T01:30:37;2.58;;;0.38;;
28170;SDS011;15458;53.346;-1.688;2023-11-21T01:33:02;4.60;;;0.75;;
28170;SDS011;15458;53.346;-1.688;2023-11-21T01:35:29;2.38;;;0.60;;
28170;SDS011;15458;53.346;-1.688;2023-11-21T01:37:55;2.35;;;0.52;;
28170;SDS011;15458;53.346;-1.688;2023-11-21T01:40:20;2.90;;;0.47;;
28170;SDS011;15458;53.346;-1.688;2023-11-21T01:42:46;4.18;;;0.75;;
28170;SDS011;15458;53.346;-1.688;2023-11-21T01:45:13;3.90;;;0.80;;
28170;SDS011;15458;53.346;-1.688;2023-11-21T01:47:39;0.80;;;0.30;;
28170;SDS011;15458;53.346;-1.688;2023-11-21T01:50:07;2.28;;;0.60;;
28170;SDS011;15458;53.346;-1.688;2023-11-21T01:52:36;3.60;;;0.63;;
28170;SDS011;15458;53.346;-1.688;2023-11-21T01:55:03;1.95;;;0.50;;
28170;SDS011;15458;53.346;-1.688;2023-11-21T01:57:31;7.97;;;0.45;;
28170;SDS011;15458;53.346;-1.688;2023-11-21T01:59:57;2.63;;;0.50;;
28170;SDS011;15458;53.346;-1.688;2023-11-21T02:02:40;2.47;;;0.40;;
28170;SDS011;15458;53.346;-1.688;2023-11-21T02:05:13;3.13;;;1.23;;
28170;SDS011;15458;53.346;-1.688;2023-11-21T02:07:41;1.42;;;0.57;;
28170;SDS011;15458;53.346;-1.688;2023-11-21T02:10:08;2.33;;;0.55;;
28170;SDS011;15458;53.346;-1.688;2023-11-21T02:12:34;2.55;;;0.65;;
28170;SDS011;15458;53.346;-1.688;2023-11-21T02:15:03;3.22;;;0.40;;
28170;SDS011;15458;53.346;-1.688;2023-11-21T02:17:39;1.25;;;0.30;;
28170;SDS011;15458;53.346;-1.688;2023-11-21T02:20:12;3.70;;;0.70;;
28170;SDS011;15458;53.346;-1.688;2023-11-21T02:22:43;1.40;;;0.35;;
28170;SDS011;15458;53.346;-1.688;2023-11-21T02:25:25;1.52;;;0.40;;
28170;SDS011;15458;53.346;-1.688;2023-11-21T02:27:52;4.05;;;0.60;;
28170;SDS011;15458;53.346;-1.688;2023-11-21T02:30:22;0.93;;;0.20;;
28170;SDS011;15458;53.346;-1.688;2023-11-21T02:32:50;2.50;;;0.22;;
28170;SDS011;15458;53.346;-1.688;2023-11-21T02:35:18;1.38;;;0.28;;
28170;SDS011;15458;53.346;-1.688;2023-11-21T02:37:46;1.30;;;0.38;;
28170;SDS011;15458;53.346;-1.688;2023-11-21T02:40:12;0.63;;;0.30;;
28170;SDS011;15458;53.346;-1.688;2023-11-21T02:42:38;4.15;;;0.85;;
28170;SDS011;15458;53.346;-1.688;2023-11-21T02:45:06;1.38;;;0.17;;
28170;SDS011;15458;53.346;-1.688;2023-11-21T02:47:33;4.32;;;0.68;;
28170;SDS011;15458;53.346;-1.688;2023-11-21T02:49:58;1.75;;;1.33;;
28170;SDS011;15458;53.346;-1.688;2023-11-21T02:52:25;2.38;;;0.40;;
28170;SDS011;15458;53.346;-1.688;2023-11-21T02:54:51;2.33;;;0.40;;
28170;SDS011;15458;53.346;-1.688;2023-11-21T02:57:17;2.95;;;0.32;;
28170;SDS011;15458;53.346;-1.688;2023-11-21T02:59:43;0.55;;;0.25;;
28170;SDS011;15458;53.346;-1.688;2023-11-21T03:02:09;0.88;;;0.13;;
28170;SDS011;15458;53.346;-1.688;2023-11-21T03:04:35;1.65;;;0.28;;
28170;SDS011;15458;53.346;-1.688;2023-11-21T03:07:01;1.63;;;0.38;;
28170;SDS011;15458;53.346;-1.688;2023-11-21T03:09:26;0.95;;;0.32;;
28170;SDS011;15458;53.346;-1.688;2023-11-21T03:11:53;0.20;;;0.10;;
28170;SDS011;15458;53.346;-1.688;2023-11-21T03:14:18;0.35;;;0.10;;
28170;SDS011;15458;53.346;-1.688;2023-11-21T03:16:45;0.10;;;0.03;;
28170;SDS011;15458;53.346;-1.688;2023-11-21T03:19:11;0.35;;;0.17;;
28170;SDS011;15458;53.346;-1.688;2023-11-21T03:21:37;0.15;;;0.10;;
28170;SDS011;15458;53.346;-1.688;2023-11-21T03:24:02;0.28;;;0.10;;
28170;SDS011;15458;53.346;-1.688;2023-11-21T03:26:28;0.00;;;0.00;;
28170;SDS011;15458;53.346;-1.688;2023-11-21T03:28:55;3.63;;;0.30;;
28170;SDS011;15458;53.346;-1.688;2023-11-21T03:31:21;0.60;;;0.25;;
28170;SDS011;15458;53.346;-1.688;2023-11-21T03:33:46;0.10;;;0.10;;
28170;SDS011;15458;53.346;-1.688;2023-11-21T03:36:12;1.25;;;0.15;;
28170;SDS011;15458;53.346;-1.688;2023-11-21T03:38:40;0.90;;;0.17;;
28170;SDS011;15458;53.346;-1.688;2023-11-21T03:41:06;0.40;;;0.10;;
28170;SDS011;15458;53.346;-1.688;2023-11-21T03:43:35;1.08;;;0.25;;
28170;SDS011;15458;53.346;-1.688;2023-11-21T03:46:01;1.00;;;0.15;;
28170;SDS011;15458;53.346;-1.688;2023-11-21T03:48:27;0.57;;;0.20;;
28170;SDS011;15458;53.346;-1.688;2023-11-21T03:50:53;0.30;;;0.17;;
28170;SDS011;15458;53.346;-1.688;2023-11-21T03:53:18;1.50;;;0.20;;
28170;SDS011;15458;53.346;-1.688;2023-11-21T03:55:44;2.08;;;0.30;;
28170;SDS011;15458;53.346;-1.688;2023-11-21T03:58:09;0.08;;;0.08;;
28170;SDS011;15458;53.346;-1.688;2023-11-21T04:00:35;0.47;;;0.10;;
28170;SDS011;15458;53.346;-1.688;2023-11-21T04:03:01;0.30;;;0.13;;
28170;SDS011;15458;53.346;-1.688;2023-11-21T04:05:28;0.55;;;0.10;;
28170;SDS011;15458;53.346;-1.688;2023-11-21T04:07:53;0.47;;;0.08;;
28170;SDS011;15458;53.346;-1.688;2023-11-21T04:10:19;0.00;;;0.00;;
28170;SDS011;15458;53.346;-1.688;2023-11-21T04:12:45;1.52;;;0.08;;
28170;SDS011;15458;53.346;-1.688;2023-11-21T04:15:11;0.45;;;0.10;;
28170;SDS011;15458;53.346;-1.688;2023-11-21T04:17:40;0.10;;;0.10;;
28170;SDS011;15458;53.346;-1.688;2023-11-21T04:20:07;0.40;;;0.20;;
28170;SDS011;15458;53.346;-1.688;2023-11-21T04:22:37;0.40;;;0.40;;
28170;SDS011;15458;53.346;-1.688;2023-11-21T04:25:06;0.52;;;0.20;;
28170;SDS011;15458;53.346;-1.688;2023-11-21T04:27:42;0.13;;;0.13;;
28170;SDS011;15458;53.346;-1.688;2023-11-21T04:30:09;1.13;;;0.20;;
28170;SDS011;15458;53.346;-1.688;2023-11-21T04:32:35;1.13;;;0.10;;
28170;SDS011;15458;53.346;-1.688;2023-11-21T04:35:01;0.40;;;0.20;;
28170;SDS011;15458;53.346;-1.688;2023-11-21T04:37:27;1.27;;;0.20;;
28170;SDS011;15458;53.346;-1.688;2023-11-21T04:39:53;1.48;;;0.20;;
28170;SDS011;15458;53.346;-1.688;2023-11-21T04:42:18;1.45;;;0.15;;
28170;SDS011;15458;53.346;-1.688;2023-11-21T04:44:44;0.65;;;0.22;;
28170;SDS011;15458;53.346;-1.688;2023-11-21T04:47:10;0.00;;;0.00;;
28170;SDS011;15458;53.346;-1.688;2023-11-21T04:49:35;0.10;;;0.10;;
28170;SDS011;15458;53.346;-1.688;2023-11-21T04:52:01;0.80;;;0.10;;
28170;SDS011;15458;53.346;-1.688;2023-11-21T04:54:28;0.85;;;0.52;;
28170;SDS011;15458;53.346;-1.688;2023-11-21T04:56:55;0.45;;;0.13;;
28170;SDS011;15458;53.346;-1.688;2023-11-21T04:59:21;0.50;;;0.10;;
28170;SDS011;15458;53.346;-1.688;2023-11-21T05:01:49;0.10;;;0.10;;
28170;SDS011;15458;53.346;-1.688;2023-11-21T05:04:15;1.17;;;0.03;;
28170;SDS011;15458;53.346;-1.688;2023-11-21T05:06:41;2.50;;;0.20;;
28170;SDS011;15458;53.346;-1.688;2023-11-21T05:09:07;1.25;;;0.15;;
28170;SDS011;15458;53.346;-1.688;2023-11-21T05:11:36;1.15;;;0.28;;
28170;SDS011;15458;53.346;-1.688;2023-11-21T05:14:02;1.55;;;0.20;;
28170;SDS011;15458;53.346;-1.688;2023-11-21T05:16:30;0.03;;;0.03;;
28170;SDS011;15458;53.346;-1.688;2023-11-21T05:18:56;0.10;;;0.10;;
28170;SDS011;15458;53.346;-1.688;2023-11-21T05:21:25;1.55;;;0.20;;
28170;SDS011;15458;53.346;-1.688;2023-11-21T05:23:51;1.65;;;0.10;;
28170;SDS011;15458;53.346;-1.688;2023-11-21T05:26:17;0.22;;;0.00;;
28170;SDS011;15458;53.346;-1.688;2023-11-21T05:28:43;0.30;;;0.10;;
28170;SDS011;15458;53.346;-1.688;2023-11-21T05:31:08;0.10;;;0.10;;
28170;SDS011;15458;53.346;-1.688;2023-11-21T05:33:35;1.55;;;0.10;;
28170;SDS011;15458;53.346;-1.688;2023-11-21T05:36:01;0.10;;;0.10;;
28170;SDS011;15458;53.346;-1.688;2023-11-21T05:38:27;1.00;;;0.25;;
28170;SDS011;15458;53.346;-1.688;2023-11-21T05:40:53;0.10;;;0.10;;
28170;SDS011;15458;53.346;-1.688;2023-11-21T05:43:19;0.47;;;0.13;;
28170;SDS011;15458;53.346;-1.688;2023-11-21T05:45:45;1.20;;;0.30;;
28170;SDS011;15458;53.346;-1.688;2023-11-21T05:48:10;1.15;;;0.20;;
28170;SDS011;15458;53.346;-1.688;2023-11-21T05:50:36;0.63;;;0.10;;
28170;SDS011;15458;53.346;-1.688;2023-11-21T05:53:03;0.77;;;0.20;;
28170;SDS011;15458;53.346;-1.688;2023-11-21T05:55:28;0.43;;;0.20;;
28170;SDS011;15458;53.346;-1.688;2023-11-21T05:57:54;0.55;;;0.20;;
28170;SDS011;15458;53.346;-1.688;2023-11-21T06:00:20;0.82;;;0.40;;
28170;SDS011;15458;53.346;-1.688;2023-11-21T06:02:50;0.38;;;0.22;;
28170;SDS011;15458;53.346;-1.688;2023-11-21T06:05:19;1.10;;;0.30;;
28170;SDS011;15458;53.346;-1.688;2023-11-21T06:07:45;0.88;;;0.30;;
28170;SDS011;15458;53.346;-1.688;2023-11-21T06:10:11;1.38;;;0.40;;
28170;SDS011;15458;53.346;-1.688;2023-11-21T06:12:39;2.15;;;0.50;;
28170;SDS011;15458;53.346;-1.688;2023-11-21T06:15:08;1.38;;;0.38;;
28170;SDS011;15458;53.346;-1.688;2023-11-21T06:17:35;1.67;;;0.40;;
28170;SDS011;15458;53.346;-1.688;2023-11-21T06:20:02;1.48;;;0.63;;
28170;SDS011;15458;53.346;-1.688;2023-11-21T06:22:34;1.10;;;0.40;;
28170;SDS011;15458;53.346;-1.688;2023-11-21T06:25:01;1.17;;;0.50;;
28170;SDS011;15458;53.346;-1.688;2023-11-21T06:27:28;1.33;;;0.45;;
28170;SDS011;15458;53.346;-1.688;2023-11-21T06:29:54;1.58;;;0.22;;
28170;SDS011;15458;53.346;-1.688;2023-11-21T06:32:20;0.28;;;0.28;;
28170;SDS011;15458;53.346;-1.688;2023-11-21T06:34:47;0.45;;;0.28;;
28170;SDS011;15458;53.346;-1.688;2023-11-21T06:37:14;0.82;;;0.20;;
28170;SDS011;15458;53.346;-1.688;2023-11-21T06:39:40;0.38;;;0.38;;
28170;SDS011;15458;53.346;-1.688;2023-11-21T06:42:06;0.63;;;0.38;;
28170;SDS011;15458;53.346;-1.688;2023-11-21T06:44:32;2.70;;;0.28;;
28170;SDS011;15458;53.346;-1.688;2023-11-21T06:46:58;1.38;;;0.25;;
28170;SDS011;15458;53.346;-1.688;2023-11-21T06:49:24;2.45;;;0.30;;
28170;SDS011;15458;53.346;-1.688;2023-11-21T06:51:50;1.80;;;0.30;;
28170;SDS011;15458;53.346;-1.688;2023-11-21T06:54:16;1.45;;;0.40;;
28170;SDS011;15458;53.346;-1.688;2023-11-21T06:56:42;1.55;;;0.50;;
28170;SDS011;15458;53.346;-1.688;2023-11-21T06:59:07;0.40;;;0.20;;
28170;SDS011;15458;53.346;-1.688;2023-11-21T07:01:34;0.10;;;0.10;;
28170;SDS011;15458;53.346;-1.688;2023-11-21T07:04:04;0.30;;;0.30;;
28170;SDS011;15458;53.346;-1.688;2023-11-21T07:06:31;2.35;;;0.35;;
28170;SDS011;15458;53.346;-1.688;2023-11-21T07:08:57;3.10;;;0.30;;
28170;SDS011;15458;53.346;-1.688;2023-11-21T07:11:23;1.23;;;0.57;;
28170;SDS011;15458;53.346;-1.688;2023-11-21T07:13:50;1.38;;;0.52;;
28170;SDS011;15458;53.346;-1.688;2023-11-21T07:16:16;1.38;;;0.50;;
28170;SDS011;15458;53.346;-1.688;2023-11-21T07:18:41;2.17;;;1.00;;
28170;SDS011;15458;53.346;-1.688;2023-11-21T07:21:07;3.42;;;0.60;;
28170;SDS011;15458;53.346;-1.688;2023-11-21T07:23:33;5.03;;;0.80;;
28170;SDS011;15458;53.346;-1.688;2023-11-21T07:25:59;4.38;;;0.82;;
28170;SDS011;15458;53.346;-1.688;2023-11-21T07:28:25;2.58;;;0.75;;
28170;SDS011;15458;53.346;-1.688;2023-11-21T07:30:51;2.38;;;0.70;;
28170;SDS011;15458;53.346;-1.688;2023-11-21T07:33:17;4.20;;;0.85;;
28170;SDS011;15458;53.346;-1.688;2023-11-21T07:35:42;1.67;;;0.80;;
28170;SDS011;15458;53.346;-1.688;2023-11-21T07:38:08;2.30;;;0.98;;
28170;SDS011;15458;53.346;-1.688;2023-11-21T07:40:34;4.55;;;1.10;;
28170;SDS011;15458;53.346;-1.688;2023-11-21T07:43:15;3.97;;;1.05;;
28170;SDS011;15458;53.346;-1.688;2023-11-21T07:45:40;3.30;;;1.13;;
28170;SDS011;15458;53.346;-1.688;2023-11-21T07:48:07;5.70;;;1.15;;
28170;SDS011;15458;53.346;-1.688;2023-11-21T07:50:32;3.53;;;1.50;;
28170;SDS011;15458;53.346;-1.688;2023-11-21T07:52:58;4.82;;;1.10;;
28170;SDS011;15458;53.346;-1.688;2023-11-21T07:55:24;1.42;;;1.05;;
28170;SDS011;15458;53.346;-1.688;2023-11-21T07:57:50;2.88;;;0.88;;
28170;SDS011;15458;53.346;-1.688;2023-11-21T08:00:15;5.63;;;2.38;;
28170;SDS011;15458;53.346;-1.688;2023-11-21T08:02:41;6.13;;;1.02;;
28170;SDS011;15458;53.346;-1.688;2023-11-21T08:05:09;4.93;;;1.40;;
28170;SDS011;15458;53.346;-1.688;2023-11-21T08:07:35;4.68;;;1.13;;
28170;SDS011;15458;53.346;-1.688;2023-11-21T08:10:01;5.38;;;2.03;;
28170;SDS011;15458;53.346;-1.688;2023-11-21T08:12:27;6.43;;;1.15;;
28170;SDS011;15458;53.346;-1.688;2023-11-21T08:14:52;7.65;;;1.30;;
28170;SDS011;15458;53.346;-1.688;2023-11-21T08:17:18;9.05;;;1.73;;
28170;SDS011;15458;53.346;-1.688;2023-11-21T08:19:45;9.93;;;1.75;;
28170;SDS011;15458;53.346;-1.688;2023-11-21T08:22:17;3.05;;;1.00;;
28170;SDS011;15458;53.346;-1.688;2023-11-21T08:24:43;8.23;;;2.08;;
28170;SDS011;15458;53.346;-1.688;2023-11-21T08:27:09;3.53;;;1.33;;
28170;SDS011;15458;53.346;-1.688;2023-11-21T08:29:35;3.95;;;1.63;;
28170;SDS011;15458;53.346;-1.688;2023-11-21T08:32:04;5.88;;;1.67;;
28170;SDS011;15458;53.346;-1.688;2023-11-21T08:34:30;3.17;;;1.58;;
28170;SDS011;15458;53.346;-1.688;2023-11-21T08:36:56;4.25;;;1.13;;
28170;SDS011;15458;53.346;-1.688;2023-11-21T08:39:22;8.93;;;1.65;;
28170;SDS011;15458;53.346;-1.688;2023-11-21T08:41:49;4.85;;;1.27;;
28170;SDS011;15458;53.346;-1.688;2023-11-21T08:44:18;5.75;;;1.08;;
28170;SDS011;15458;53.346;-1.688;2023-11-21T08:46:44;5.22;;;1.00;;
28170;SDS011;15458;53.346;-1.688;2023-11-21T08:49:13;7.60;;;1.42;;
28170;SDS011;15458;53.346;-1.688;2023-11-21T08:51:40;6.95;;;1.00;;
28170;SDS011;15458;53.346;-1.688;2023-11-21T08:54:06;7.20;;;1.50;;
28170;SDS011;15458;53.346;-1.688;2023-11-21T08:56:36;5.03;;;1.13;;
28170;SDS011;15458;53.346;-1.688;2023-11-21T08:59:01;6.68;;;1.58;;
28170;SDS011;15458;53.346;-1.688;2023-11-21T09:01:28;7.85;;;2.13;;
28170;SDS011;15458;53.346;-1.688;2023-11-21T09:03:57;5.72;;;1.38;;
28170;SDS011;15458;53.346;-1.688;2023-11-21T09:06:23;5.90;;;1.42;;
28170;SDS011;15458;53.346;-1.688;2023-11-21T09:08:49;8.20;;;1.35;;
28170;SDS011;15458;53.346;-1.688;2023-11-21T09:11:15;8.13;;;1.67;;
28170;SDS011;15458;53.346;-1.688;2023-11-21T09:13:41;13.07;;;1.58;;
28170;SDS011;15458;53.346;-1.688;2023-11-21T09:16:06;10.93;;;1.45;;
28170;SDS011;15458;53.346;-1.688;2023-11-21T09:18:32;5.22;;;1.90;;
28170;SDS011;15458;53.346;-1.688;2023-11-21T09:20:58;6.70;;;2.00;;
28170;SDS011;15458;53.346;-1.688;2023-11-21T09:23:24;12.52;;;1.63;;
28170;SDS011;15458;53.346;-1.688;2023-11-21T09:25:49;8.20;;;1.58;;
28170;SDS011;15458;53.346;-1.688;2023-11-21T09:28:16;6.57;;;1.08;;
28170;SDS011;15458;53.346;-1.688;2023-11-21T09:30:43;4.75;;;1.65;;
28170;SDS011;15458;53.346;-1.688;2023-11-21T09:33:08;14.20;;;1.80;;
28170;SDS011;15458;53.346;-1.688;2023-11-21T09:35:37;7.25;;;1.67;;
28170;SDS011;15458;53.346;-1.688;2023-11-21T09:38:03;5.60;;;1.40;;
28170;SDS011;15458;53.346;-1.688;2023-11-21T09:40:35;9.75;;;1.67;;
28170;SDS011;15458;53.346;-1.688;2023-11-21T09:43:02;11.90;;;1.60;;
28170;SDS011;15458;53.346;-1.688;2023-11-21T09:45:41;5.10;;;1.30;;
28170;SDS011;15458;53.346;-1.688;2023-11-21T09:48:10;9.27;;;1.50;;
28170;SDS011;15458;53.346;-1.688;2023-11-21T09:50:37;5.38;;;2.10;;
28170;SDS011;15458;53.346;-1.688;2023-11-21T09:53:19;6.60;;;1.70;;
28170;SDS011;15458;53.346;-1.688;2023-11-21T09:55:47;8.73;;;2.03;;
28170;SDS011;15458;53.346;-1.688;2023-11-21T09:58:16;11.38;;;2.25;;
28170;SDS011;15458;53.346;-1.688;2023-11-21T10:00:43;9.05;;;1.60;;
28170;SDS011;15458;53.346;-1.688;2023-11-21T10:03:13;4.45;;;1.23;;
28170;SDS011;15458;53.346;-1.688;2023-11-21T10:05:41;7.95;;;1.80;;
28170;SDS011;15458;53.346;-1.688;2023-11-21T10:08:08;10.65;;;2.35;;
28170;SDS011;15458;53.346;-1.688;2023-11-21T10:10:36;7.57;;;1.52;;
28170;SDS011;15458;53.346;-1.688;2023-11-21T10:13:03;4.35;;;1.58;;
28170;SDS011;15458;53.346;-1.688;2023-11-21T10:15:35;11.43;;;1.55;;
28170;SDS011;15458;53.346;-1.688;2023-11-21T10:18:02;7.03;;;1.25;;
28170;SDS011;15458;53.346;-1.688;2023-11-21T10:20:29;6.38;;;1.40;;
28170;SDS011;15458;53.346;-1.688;2023-11-21T10:22:56;7.85;;;1.33;;
28170;SDS011;15458;53.346;-1.688;2023-11-21T10:25:22;8.25;;;1.88;;
28170;SDS011;15458;53.346;-1.688;2023-11-21T10:27:48;6.80;;;1.35;;
28170;SDS011;15458;53.346;-1.688;2023-11-21T10:30:17;13.90;;;1.90;;
28170;SDS011;15458;53.346;-1.688;2023-11-21T10:32:43;6.63;;;1.95;;
28170;SDS011;15458;53.346;-1.688;2023-11-21T10:35:09;7.82;;;1.17;;
28170;SDS011;15458;53.346;-1.688;2023-11-21T10:37:39;6.25;;;1.40;;
28170;SDS011;15458;53.346;-1.688;2023-11-21T10:40:08;6.65;;;1.30;;
28170;SDS011;15458;53.346;-1.688;2023-11-21T10:42:37;9.00;;;1.27;;
28170;SDS011;15458;53.346;-1.688;2023-11-21T10:45:03;5.15;;;1.50;;
28170;SDS011;15458;53.346;-1.688;2023-11-21T10:47:40;8.65;;;1.45;;
28170;SDS011;15458;53.346;-1.688;2023-11-21T10:50:06;9.68;;;1.40;;
28170;SDS011;15458;53.346;-1.688;2023-11-21T10:52:36;11.63;;;1.48;;
28170;SDS011;15458;53.346;-1.688;2023-11-21T10:55:15;11.70;;;1.65;;
28170;SDS011;15458;53.346;-1.688;2023-11-21T10:57:51;8.10;;;1.52;;
28170;SDS011;15458;53.346;-1.688;2023-11-21T11:00:18;8.98;;;1.45;;
28170;SDS011;15458;53.346;-1.688;2023-11-21T11:02:48;4.68;;;1.38;;
28170;SDS011;15458;53.346;-1.688;2023-11-21T11:05:17;10.60;;;1.50;;
28170;SDS011;15458;53.346;-1.688;2023-11-21T11:07:45;9.48;;;1.77;;
28170;SDS011;15458;53.346;-1.688;2023-11-21T11:10:19;11.75;;;1.40;;
28170;SDS011;15458;53.346;-1.688;2023-11-21T11:12:47;7.35;;;1.50;;
28170;SDS011;15458;53.346;-1.688;2023-11-21T11:15:14;11.88;;;1.50;;
28170;SDS011;15458;53.346;-1.688;2023-11-21T11:17:41;5.90;;;1.73;;
28170;SDS011;15458;53.346;-1.688;2023-11-21T11:20:09;6.10;;;1.60;;
28170;SDS011;15458;53.346;-1.688;2023-11-21T11:22:47;8.30;;;1.55;;
28170;SDS011;15458;53.346;-1.688;2023-11-21T11:25:50;9.90;;;2.33;;
28170;SDS011;15458;53.346;-1.688;2023-11-21T11:28:38;11.43;;;2.05;;
28170;SDS011;15458;53.346;-1.688;2023-11-21T11:34:19;6.35;;;1.48;;
28170;SDS011;15458;53.346;-1.688;2023-11-21T11:37:02;7.38;;;1.58;;
28170;SDS011;15458;53.346;-1.688;2023-11-21T11:39:30;7.57;;;1.35;;
28170;SDS011;15458;53.346;-1.688;2023-11-21T11:42:11;5.30;;;1.08;;
28170;SDS011;15458;53.346;-1.688;2023-11-21T11:47:26;7.05;;;1.58;;
28170;SDS011;15458;53.346;-1.688;2023-11-21T11:49:58;5.95;;;1.30;;
28170;SDS011;15458;53.346;-1.688;2023-11-21T11:52:41;6.55;;;1.40;;
28170;SDS011;15458;53.346;-1.688;2023-11-21T11:55:09;6.18;;;1.17;;
28170;SDS011;15458;53.346;-1.688;2023-11-21T11:57:39;8.27;;;1.35;;
28170;SDS011;15458;53.346;-1.688;2023-11-21T12:00:22;4.10;;;0.90;;
28170;SDS011;15458;53.346;-1.688;2023-11-21T12:03:10;7.55;;;1.33;;
28170;SDS011;15458;53.346;-1.688;2023-11-21T12:05:35;2.33;;;1.17;;
28170;SDS011;15458;53.346;-1.688;2023-11-21T12:08:04;8.50;;;1.02;;
28170;SDS011;15458;53.346;-1.688;2023-11-21T12:10:31;3.67;;;1.02;;
28170;SDS011;15458;53.346;-1.688;2023-11-21T12:15:26;4.55;;;1.08;;
28170;SDS011;15458;53.346;-1.688;2023-11-21T12:17:56;6.03;;;1.08;;
28170;SDS011;15458;53.346;-1.688;2023-11-21T12:20:23;10.32;;;1.63;;
28170;SDS011;15458;53.346;-1.688;2023-11-21T12:22:51;5.20;;;1.30;;
28170;SDS011;15458;53.346;-1.688;2023-11-21T12:25:24;9.15;;;1.77;;
28170;SDS011;15458;53.346;-1.688;2023-11-21T12:27:56;6.85;;;1.17;;
28170;SDS011;15458;53.346;-1.688;2023-11-21T12:30:23;4.85;;;1.92;;
28170;SDS011;15458;53.346;-1.688;2023-11-21T12:32:55;3.97;;;1.00;;
28170;SDS011;15458;53.346;-1.688;2023-11-21T12:35:25;3.97;;;0.80;;
28170;SDS011;15458;53.346;-1.688;2023-11-21T12:37:55;2.78;;;0.93;;
28170;SDS011;15458;53.346;-1.688;2023-11-21T12:40:22;3.92;;;0.77;;
28170;SDS011;15458;53.346;-1.688;2023-11-21T12:42:49;7.82;;;1.35;;
28170;SDS011;15458;53.346;-1.688;2023-11-21T12:45:19;5.78;;;1.80;;
28170;SDS011;15458;53.346;-1.688;2023-11-21T12:50:22;6.00;;;1.13;;
28170;SDS011;15458;53.346;-1.688;2023-11-21T12:52:50;7.70;;;1.58;;
28170;SDS011;15458;53.346;-1.688;2023-11-21T12:55:17;9.32;;;1.70;;
28170;SDS011;15458;53.346;-1.688;2023-11-21T12:57:44;7.80;;;2.08;;
28170;SDS011;15458;53.346;-1.688;2023-11-21T13:00:11;14.27;;;2.40;;
28170;SDS011;15458;53.346;-1.688;2023-11-21T13:02:49;5.05;;;1.80;;
28170;SDS011;15458;53.346;-1.688;2023-11-21T13:05:26;5.80;;;1.10;;
28170;SDS011;15458;53.346;-1.688;2023-11-21T13:10:31;4.78;;;1.00;;
28170;SDS011;15458;53.346;-1.688;2023-11-21T13:13:00;5.10;;;1.50;;
28170;SDS011;15458;53.346;-1.688;2023-11-21T13:15:30;6.43;;;1.23;;
28170;SDS011;15458;53.346;-1.688;2023-11-21T13:18:00;10.32;;;1.42;;
28170;SDS011;15458;53.346;-1.688;2023-11-21T13:20:25;5.68;;;1.23;;
28170;SDS011;15458;53.346;-1.688;2023-11-21T13:25:32;5.20;;;1.55;;
28170;SDS011;15458;53.346;-1.688;2023-11-21T13:27:58;3.85;;;0.98;;
28170;SDS011;15458;53.346;-1.688;2023-11-21T13:30:25;4.90;;;0.88;;
28170;SDS011;15458;53.346;-1.688;2023-11-21T13:32:53;6.05;;;1.05;;
28170;SDS011;15458;53.346;-1.688;2023-11-21T13:35:22;2.65;;;0.63;;
28170;SDS011;15458;53.346;-1.688;2023-11-21T13:38:06;3.22;;;0.68;;
28170;SDS011;15458;53.346;-1.688;2023-11-21T13:40:34;5.78;;;0.52;;
28170;SDS011;15458;53.346;-1.688;2023-11-21T13:43:07;3.90;;;0.90;;
28170;SDS011;15458;53.346;-1.688;2023-11-21T13:45:41;4.15;;;0.68;;
28170;SDS011;15458;53.346;-1.688;2023-11-21T13:48:09;2.00;;;0.63;;
28170;SDS011;15458;53.346;-1.688;2023-11-21T13:50:41;3.00;;;0.70;;
28170;SDS011;15458;53.346;-1.688;2023-11-21T13:53:13;3.15;;;1.10;;
28170;SDS011;15458;53.346;-1.688;2023-11-21T13:55:51;7.68;;;0.80;;
28170;SDS011;15458;53.346;-1.688;2023-11-21T13:58:22;1.25;;;0.77;;
28170;SDS011;15458;53.346;-1.688;2023-11-21T14:01:08;1.40;;;0.63;;
28170;SDS011;15458;53.346;-1.688;2023-11-21T14:03:59;4.85;;;1.10;;
28170;SDS011;15458;53.346;-1.688;2023-11-21T14:06:27;1.23;;;0.60;;
28170;SDS011;15458;53.346;-1.688;2023-11-21T14:09:00;1.95;;;0.93;;
28170;SDS011;15458;53.346;-1.688;2023-11-21T14:11:30;2.10;;;0.50;;
28170;SDS011;15458;53.346;-1.688;2023-11-21T14:13:56;3.97;;;0.90;;
28170;SDS011;15458;53.346;-1.688;2023-11-21T14:16:24;2.63;;;0.70;;
28170;SDS011;15458;53.346;-1.688;2023-11-21T14:18:50;3.78;;;0.80;;
28170;SDS011;15458;53.346;-1.688;2023-11-21T14:21:22;2.67;;;0.90;;
28170;SDS011;15458;53.346;-1.688;2023-11-21T14:23:48;3.17;;;0.90;;
28170;SDS011;15458;53.346;-1.688;2023-11-21T14:26:14;4.63;;;0.82;;
28170;SDS011;15458;53.346;-1.688;2023-11-21T14:28:41;2.63;;;1.05;;
28170;SDS011;15458;53.346;-1.688;2023-11-21T14:31:07;5.43;;;0.70;;
28170;SDS011;15458;53.346;-1.688;2023-11-21T14:33:38;1.67;;;0.70;;
28170;SDS011;15458;53.346;-1.688;2023-11-21T14:36:04;5.22;;;1.10;;
28170;SDS011;15458;53.346;-1.688;2023-11-21T14:38:33;2.15;;;0.82;;
28170;SDS011;15458;53.346;-1.688;2023-11-21T14:40:59;5.03;;;1.20;;
28170;SDS011;15458;53.346;-1.688;2023-11-21T14:43:24;5.22;;;2.00;;
28170;SDS011;15458;53.346;-1.688;2023-11-21T14:45:54;5.13;;;1.70;;
28170;SDS011;15458;53.346;-1.688;2023-11-21T14:48:21;3.78;;;1.00;;
28170;SDS011;15458;53.346;-1.688;2023-11-21T14:51:05;6.18;;;1.73;;
28170;SDS011;15458;53.346;-1.688;2023-11-21T14:53:31;4.28;;;0.80;;